Time;durP1;ratioP1;P1;durP2;ratioP2;P2;SDS_P1;SDS_P2;PMS_P1;PMS_P2;Temp;Humidity;BMP_temperature;BMP_pressure;BME280_temperature;BME280_humidity;BME280_pressure;Samples;Min_cycle;Max_cycle;Signal;HPM_P1;HPM_P2
2023/12/12 00:01:22;;;;;;;16.80;7.10;;;;;;;2.25;80.19;97878.80;105595;1257;96660;-70
2023/12/12 00:03:49;;;;;;;16.70;6.90;;;;;;;2.25;80.05;97877.92;105463;1256;96738;-68
2023/12/12 00:06:16;;;;;;;17.70;7.40;;;;;;;2.26;80.29;97874.00;105413;1256;107673;-68
2023/12/12 00:08:43;;;;;;;16.00;7.20;;;;;;;2.26;80.33;97875.26;105079;1256;96717;-69
2023/12/12 00:11:09;;;;;;;16.00;7.00;;;;;;;2.24;80.50;97872.18;105589;1254;96594;-69
2023/12/12 00:13:35;;;;;;;16.60;7.20;;;;;;;2.26;80.25;97872.27;105612;1256;97846;-70
2023/12/12 00:16:02;;;;;;;16.50;7.40;;;;;;;2.28;80.40;97874.24;105445;1257;107568;-71
2023/12/12 00:18:29;;;;;;;17.20;7.50;;;;;;;2.29;80.41;97880.83;105394;1257;97983;-68
2023/12/12 00:20:55;;;;;;;17.00;7.00;;;;;;;2.30;80.20;97884.41;105244;1256;96519;-68
2023/12/12 00:23:22;;;;;;;16.80;6.90;;;;;;;2.32;80.35;97883.96;105258;1264;97071;-68
2023/12/12 00:25:49;;;;;;;17.90;8.10;;;;;;;2.32;80.36;97885.34;105575;1256;97934;-71
2023/12/12 00:28:16;;;;;;;16.60;7.20;;;;;;;2.33;80.32;97887.06;105566;1257;97530;-67
2023/12/12 00:30:42;;;;;;;17.80;7.90;;;;;;;2.33;80.45;97887.92;105533;1257;97106;-68
2023/12/12 00:33:09;;;;;;;18.70;6.60;;;;;;;2.33;80.61;97893.73;105671;1254;96820;-68
2023/12/12 00:35:35;;;;;;;18.50;6.90;;;;;;;2.34;80.31;97898.02;105629;1257;96538;-68
2023/12/12 00:38:02;;;;;;;17.80;6.70;;;;;;;2.35;80.33;97899.88;105817;1265;96615;-71
2023/12/12 00:40:28;;;;;;;15.00;6.30;;;;;;;2.36;80.32;97895.44;106007;1256;96746;-70
2023/12/12 00:42:54;;;;;;;15.10;6.20;;;;;;;2.37;80.35;97897.83;105353;1256;96997;-68
2023/12/12 00:45:21;;;;;;;16.90;6.90;;;;;;;2.39;80.20;97903.51;105573;1256;96600;-69
2023/12/12 00:47:47;;;;;;;16.40;6.70;;;;;;;2.39;80.35;97898.79;105500;1265;97767;-69
2023/12/12 00:50:14;;;;;;;16.70;6.80;;;;;;;2.37;80.51;97896.77;105535;1256;97420;-70
2023/12/12 00:52:41;;;;;;;16.60;6.50;;;;;;;2.36;80.62;97898.81;105358;1257;97549;-69
2023/12/12 00:55:08;;;;;;;16.40;6.30;;;;;;;2.36;80.24;97904.06;105493;1265;96942;-70
2023/12/12 00:57:35;;;;;;;17.40;7.80;;;;;;;2.37;80.42;97906.98;105524;1257;97932;-69
2023/12/12 01:00:02;;;;;;;16.20;6.40;;;;;;;2.36;80.47;97904.39;105441;1264;96602;-69
2023/12/12 01:02:29;;;;;;;16.60;6.60;;;;;;;2.35;80.51;97904.94;105576;1257;96737;-70
2023/12/12 01:04:55;;;;;;;17.50;7.10;;;;;;;2.35;80.54;97905.31;105348;1261;96593;-68
2023/12/12 01:07:22;;;;;;;14.10;6.90;;;;;;;2.34;80.45;97909.35;105595;1257;107297;-68
2023/12/12 01:09:49;;;;;;;14.30;6.10;;;;;;;2.34;80.42;97913.77;105646;1257;97834;-70
2023/12/12 01:12:15;;;;;;;16.40;7.50;;;;;;;2.34;80.18;97917.27;105237;1256;97960;-69
2023/12/12 01:14:42;;;;;;;16.90;7.00;;;;;;;2.33;80.49;97914.67;105458;1252;97916;-68
2023/12/12 01:17:08;;;;;;;16.10;6.20;;;;;;;2.33;80.48;97912.61;105348;1251;96872;-70
2023/12/12 01:19:35;;;;;;;13.20;5.90;;;;;;;2.34;80.59;97914.85;105317;1257;96675;-68
2023/12/12 01:22:01;;;;;;;12.80;5.60;;;;;;;2.33;80.79;97915.54;105535;1251;96673;-69
2023/12/12 01:24:30;;;;;;;13.60;5.90;;;;;;;2.33;80.82;97915.96;105706;1255;96609;-70
2023/12/12 01:26:56;;;;;;;12.30;5.70;;;;;;;2.32;80.65;97918.27;105412;1256;96660;-68
2023/12/12 01:29:22;;;;;;;13.00;5.40;;;;;;;2.32;81.00;97910.59;105494;1273;96695;-68
2023/12/12 01:31:49;;;;;;;13.10;5.30;;;;;;;2.30;80.77;97911.58;105657;1257;97922;-69
2023/12/12 01:34:15;;;;;;;13.70;6.30;;;;;;;2.30;81.02;97910.69;105205;1256;108385;-69
2023/12/12 01:36:42;;;;;;;14.00;6.20;;;;;;;2.29;80.81;97908.31;105504;1257;96610;-69
2023/12/12 01:39:09;;;;;;;11.70;5.00;;;;;;;2.29;80.80;97907.21;105495;1257;98279;-70
2023/12/12 01:41:35;;;;;;;15.40;6.40;;;;;;;2.30;80.93;97905.26;105530;1254;96683;-69
2023/12/12 01:44:02;;;;;;;13.30;5.40;;;;;;;2.30;80.95;97907.15;105337;1254;96698;-67
2023/12/12 01:46:30;;;;;;;12.40;5.30;;;;;;;2.30;80.83;97909.80;105507;1257;97928;-68
2023/12/12 01:48:57;;;;;;;13.00;5.50;;;;;;;2.31;80.92;97911.34;105499;1256;107546;-68
2023/12/12 01:51:24;;;;;;;11.40;5.30;;;;;;;2.32;81.01;97908.10;105292;1257;96687;-68
2023/12/12 01:53:52;;;;;;;12.30;5.90;;;;;;;2.33;80.88;97906.83;105519;1257;97576;-69
2023/12/12 01:56:19;;;;;;;11.10;4.80;;;;;;;2.33;81.06;97902.13;105615;1255;97808;-69
2023/12/12 01:58:50;;;;;;;12.00;5.50;;;;;;;2.32;80.88;97906.54;105531;1256;97431;-68
2023/12/12 02:01:18;;;;;;;14.30;6.00;;;;;;;2.32;80.93;97898.30;105442;1265;107101;-68
2023/12/12 02:03:45;;;;;;;12.10;5.30;;;;;;;2.31;81.19;97903.27;105520;1257;96620;-69
2023/12/12 02:06:14;;;;;;;13.10;5.90;;;;;;;2.31;80.92;97913.27;105723;1256;96588;-69
2023/12/12 02:08:44;;;;;;;10.30;4.90;;;;;;;2.32;80.96;97903.73;105495;1264;108518;-68
2023/12/12 02:11:11;;;;;;;8.30;4.50;;;;;;;2.33;81.19;97905.59;105367;1264;97836;-72
2023/12/12 02:13:37;;;;;;;12.10;5.00;;;;;;;2.34;80.99;97901.38;105304;1273;97208;-69
2023/12/12 02:16:04;;;;;;;10.10;4.70;;;;;;;2.34;80.65;97901.52;105410;1256;97533;-70
2023/12/12 02:18:31;;;;;;;10.90;4.80;;;;;;;2.35;80.57;97904.59;105481;1256;97050;-69
2023/12/12 02:21:00;;;;;;;10.70;4.90;;;;;;;2.37;80.77;97903.09;105626;1265;96747;-69
2023/12/12 02:23:30;;;;;;;12.30;4.90;;;;;;;2.36;81.11;97892.10;105423;1264;107513;-68
2023/12/12 02:25:59;;;;;;;10.60;4.90;;;;;;;2.37;81.09;97890.49;105340;1252;97811;-68
2023/12/12 02:28:26;;;;;;;10.90;4.90;;;;;;;2.38;80.82;97892.02;105588;1251;96615;-69
2023/12/12 02:30:54;;;;;;;9.60;4.50;;;;;;;2.39;80.98;97893.53;105532;1256;96686;-69
2023/12/12 02:33:20;;;;;;;12.80;5.40;;;;;;;2.39;81.30;97891.98;105483;1254;96709;-72
2023/12/12 02:35:47;;;;;;;11.10;4.80;;;;;;;2.39;81.19;97892.52;105533;1265;97535;-69
2023/12/12 02:38:14;;;;;;;10.60;4.80;;;;;;;2.38;81.11;97899.53;105515;1257;96653;-69
2023/12/12 02:40:40;;;;;;;8.80;4.30;;;;;;;2.39;81.00;97898.64;105658;1257;97553;-69
2023/12/12 02:43:07;;;;;;;10.40;4.90;;;;;;;2.40;80.99;97900.30;105531;1254;96885;-69
2023/12/12 02:45:33;;;;;;;9.20;4.40;;;;;;;2.39;80.91;97897.91;105473;1256;96687;-69
2023/12/12 02:48:01;;;;;;;12.30;4.90;;;;;;;2.39;81.16;97902.64;105539;1267;96600;-72
2023/12/12 02:50:27;;;;;;;9.60;4.50;;;;;;;2.40;81.06;97912.59;105654;1257;97090;-69
2023/12/12 02:52:53;;;;;;;7.80;4.20;;;;;;;2.41;81.21;97911.12;105623;1256;96628;-69
2023/12/12 02:55:20;;;;;;;9.90;4.60;;;;;;;2.41;81.11;97914.27;105846;1256;107120;-69
2023/12/12 02:57:46;;;;;;;11.90;4.70;;;;;;;2.40;81.20;97914.84;105702;1264;96602;-68
2023/12/12 03:00:13;;;;;;;10.80;5.60;;;;;;;2.39;81.06;97917.01;105729;1255;97129;-69
2023/12/12 03:02:39;;;;;;;10.70;4.60;;;;;;;2.39;81.04;97915.06;105729;1257;96772;-69
2023/12/12 03:05:06;;;;;;;12.70;4.90;;;;;;;2.38;81.38;97916.31;105516;1263;96619;-68
2023/12/12 03:07:33;;;;;;;12.60;5.20;;;;;;;2.38;81.27;97918.64;105733;1257;96577;-69
2023/12/12 03:10:00;;;;;;;9.30;4.80;;;;;;;2.39;81.00;97921.02;105776;1256;97210;-69
2023/12/12 03:12:27;;;;;;;11.70;5.10;;;;;;;2.40;81.21;97920.09;105640;1264;96631;-69
2023/12/12 03:14:53;;;;;;;11.90;5.60;;;;;;;2.40;81.33;97921.67;105720;1255;96513;-70
2023/12/12 03:17:19;;;;;;;10.60;5.10;;;;;;;2.38;81.04;97926.48;105749;1258;97660;-70
2023/12/12 03:19:46;;;;;;;12.00;5.00;;;;;;;2.39;81.19;97924.85;105497;1257;97919;-69
2023/12/12 03:22:12;;;;;;;9.30;4.40;;;;;;;2.40;81.21;97926.06;105656;1257;96603;-71
2023/12/12 03:24:39;;;;;;;12.90;5.60;;;;;;;2.41;81.36;97928.79;105840;1256;96622;-69
2023/12/12 03:27:08;;;;;;;10.60;5.10;;;;;;;2.41;81.17;97936.46;105722;1257;97941;-69
2023/12/12 03:29:35;;;;;;;12.30;5.10;;;;;;;2.41;81.18;97935.80;105660;1252;96679;-69
2023/12/12 03:32:02;;;;;;;13.90;5.50;;;;;;;2.41;80.99;97940.31;105720;1255;97915;-70
2023/12/12 03:34:28;;;;;;;12.30;5.00;;;;;;;2.41;81.43;97933.35;105301;1257;96590;-69
2023/12/12 03:36:55;;;;;;;13.80;4.80;;;;;;;2.40;81.26;97934.96;105517;1264;96683;-71
2023/12/12 03:39:21;;;;;;;10.90;5.00;;;;;;;2.40;81.18;97936.20;105398;1254;96621;-69
2023/12/12 03:41:47;;;;;;;12.20;5.30;;;;;;;2.39;81.22;97936.75;105322;1254;109879;-68
2023/12/12 03:44:14;;;;;;;10.40;4.90;;;;;;;2.40;81.41;97936.00;105468;1264;97080;-69
2023/12/12 03:46:40;;;;;;;12.70;5.30;;;;;;;2.40;81.65;97940.37;105357;1267;96622;-70
2023/12/12 03:49:07;;;;;;;12.60;5.30;;;;;;;2.41;81.64;97940.69;105740;1257;96578;-69
2023/12/12 03:51:33;;;;;;;11.60;5.10;;;;;;;2.41;81.56;97935.59;105238;1256;109415;-69
2023/12/12 03:54:00;;;;;;;11.90;5.30;;;;;;;2.42;81.76;97935.93;105257;1263;96580;-69
2023/12/12 03:56:26;;;;;;;15.40;6.00;;;;;;;2.41;81.82;97929.46;105434;1266;98018;-69
2023/12/12 03:58:52;;;;;;;14.20;5.80;;;;;;;2.42;81.54;97926.30;105376;1264;97530;-69
2023/12/12 04:01:19;;;;;;;13.60;5.40;;;;;;;2.43;81.57;97925.02;105434;1260;107957;-68
2023/12/12 04:04:04;;;;;;;12.50;5.70;;;;;;;2.45;81.37;97927.29;105579;1257;96612;-70
2023/12/12 04:06:31;;;;;;;12.50;5.90;;;;;;;2.47;81.51;97929.85;105456;1256;106988;-68
2023/12/12 04:08:57;;;;;;;12.80;5.40;;;;;;;2.48;81.45;97933.23;105447;1265;96693;-68
2023/12/12 04:11:24;;;;;;;11.60;4.60;;;;;;;2.51;81.49;97933.95;105565;1255;97118;-69
2023/12/12 04:13:51;;;;;;;13.40;5.60;;;;;;;2.54;81.46;97932.95;105721;1257;96584;-69
2023/12/12 04:16:17;;;;;;;10.60;5.00;;;;;;;2.54;81.56;97934.67;105657;1264;108726;-70
2023/12/12 04:18:44;;;;;;;12.10;5.10;;;;;;;2.55;81.62;97938.63;105576;1256;96642;-69
2023/12/12 04:21:10;;;;;;;14.40;5.40;;;;;;;2.58;81.66;97940.95;105347;1265;96591;-71
2023/12/12 04:23:42;;;;;;;12.20;5.00;;;;;;;2.61;81.27;97942.52;105502;1255;96615;-68
2023/12/12 04:26:09;;;;;;;11.70;4.80;;;;;;;2.64;81.59;97946.20;105570;1258;108311;-71
2023/12/12 04:28:36;;;;;;;13.60;5.80;;;;;;;2.66;81.45;97943.23;105533;1265;96788;-69
2023/12/12 04:31:02;;;;;;;13.00;5.00;;;;;;;2.70;81.47;97946.02;105582;1260;96602;-69
2023/12/12 04:33:29;;;;;;;12.90;5.50;;;;;;;2.73;81.78;97947.61;105530;1252;97818;-70
2023/12/12 04:35:56;;;;;;;15.10;5.70;;;;;;;2.76;81.62;97949.14;105778;1270;97799;-71
2023/12/12 04:38:22;;;;;;;12.30;5.40;;;;;;;2.79;81.36;97951.59;106100;1270;97528;-68
2023/12/12 04:40:48;;;;;;;17.80;6.50;;;;;;;2.81;81.61;97952.17;108565;1252;94560;-70
2023/12/12 04:43:15;;;;;;;14.00;5.10;;;;;;;2.84;81.49;97950.10;105559;1265;97166;-68
2023/12/12 04:45:41;;;;;;;16.30;6.50;;;;;;;2.90;81.57;97954.33;108737;1250;94618;-68
2023/12/12 04:48:08;;;;;;;16.90;6.20;;;;;;;2.95;81.64;97955.20;105768;1260;97913;-69
2023/12/12 04:50:34;;;;;;;15.40;5.70;;;;;;;3.01;81.57;97958.59;105642;1265;97969;-69
2023/12/12 04:53:01;;;;;;;17.30;6.70;;;;;;;3.05;81.75;97960.45;105750;1257;97512;-69
2023/12/12 04:55:27;;;;;;;13.10;5.60;;;;;;;3.07;81.56;97960.48;105577;1252;97950;-71
2023/12/12 04:57:54;;;;;;;14.40;5.70;;;;;;;3.09;81.57;97968.95;105924;1257;97884;-69
2023/12/12 05:00:20;;;;;;;14.00;5.50;;;;;;;3.09;81.46;97964.19;105582;1255;96542;-71
2023/12/12 05:02:47;;;;;;;12.80;5.60;;;;;;;3.08;81.36;97964.23;105513;1255;96735;-69
2023/12/12 05:05:13;;;;;;;11.70;4.80;;;;;;;3.06;81.45;97968.93;105576;1257;96588;-69
2023/12/12 05:07:40;;;;;;;9.60;4.80;;;;;;;3.04;81.50;97969.45;105741;1254;96541;-69
2023/12/12 05:10:07;;;;;;;10.00;4.80;;;;;;;3.03;81.49;97973.34;105336;1257;96626;-72
2023/12/12 05:12:33;;;;;;;12.90;5.10;;;;;;;2.99;81.37;97973.71;105676;1251;109870;-69
2023/12/12 05:15:02;;;;;;;14.80;6.20;;;;;;;2.98;81.44;97974.32;105779;1256;96613;-69
2023/12/12 05:17:29;;;;;;;18.40;7.90;;;;;;;2.98;81.41;97979.05;105793;1257;97537;-68
2023/12/12 05:19:58;;;;;;;17.60;7.50;;;;;;;2.98;81.52;97979.90;105650;1254;96655;-70
2023/12/12 05:22:25;;;;;;;16.60;6.40;;;;;;;2.99;81.52;97982.52;105771;1254;97189;-69
2023/12/12 05:24:52;;;;;;;12.60;6.00;;;;;;;2.99;81.40;97981.64;105815;1255;96597;-70
2023/12/12 05:27:18;;;;;;;15.80;6.90;;;;;;;2.99;81.55;97978.98;105549;1255;96603;-68
2023/12/12 05:29:45;;;;;;;13.80;6.20;;;;;;;2.98;81.59;97977.98;105484;1254;96692;-69
2023/12/12 05:32:11;;;;;;;16.70;6.60;;;;;;;2.97;81.34;97983.11;105382;1266;98022;-71
2023/12/12 05:34:38;;;;;;;23.10;10.40;;;;;;;2.98;81.51;97989.52;105562;1256;109463;-69
2023/12/12 05:37:04;;;;;;;20.30;9.20;;;;;;;2.99;81.47;97993.72;105841;1256;96606;-69
2023/12/12 05:39:31;;;;;;;16.60;7.00;;;;;;;3.00;81.58;97997.34;105902;1251;96693;-70
2023/12/12 05:41:57;;;;;;;15.20;6.80;;;;;;;2.99;81.51;97998.61;105557;1264;96593;-70
2023/12/12 05:44:24;;;;;;;13.90;6.60;;;;;;;3.00;81.70;98002.42;105852;1254;96590;-70
2023/12/12 05:46:51;;;;;;;16.50;7.30;;;;;;;3.00;81.55;98006.12;105644;1257;96603;-68
2023/12/12 05:49:18;;;;;;;14.60;6.60;;;;;;;2.98;81.59;98009.00;105462;1251;97905;-70
2023/12/12 05:51:45;;;;;;;15.90;7.40;;;;;;;2.98;81.57;98018.95;106561;1257;96667;-69
2023/12/12 05:54:11;;;;;;;15.10;6.40;;;;;;;3.00;81.71;98022.20;105413;1258;97922;-72
2023/12/12 05:56:39;;;;;;;14.50;6.60;;;;;;;3.01;81.51;98030.01;105777;1254;96517;-68
2023/12/12 05:59:05;;;;;;;17.60;6.80;;;;;;;3.03;81.72;98031.00;105788;1254;97934;-68
2023/12/12 06:01:31;;;;;;;18.20;8.10;;;;;;;3.04;81.63;98035.27;105394;1254;97884;-69
2023/12/12 06:03:58;;;;;;;16.80;7.10;;;;;;;3.05;81.59;98038.59;105696;1264;96551;-68
2023/12/12 06:06:24;;;;;;;16.30;7.00;;;;;;;3.05;81.66;98046.95;105803;1256;95674;-70
2023/12/12 06:08:52;;;;;;;13.80;6.10;;;;;;;3.05;81.56;98052.59;106901;1254;96680;-70
2023/12/12 06:11:21;;;;;;;15.60;7.00;;;;;;;3.06;81.67;98056.34;105515;1267;97070;-73
2023/12/12 06:13:47;;;;;;;18.40;8.30;;;;;;;3.09;81.74;98064.38;105486;1257;96602;-75
2023/12/12 06:16:14;;;;;;;20.60;7.90;;;;;;;3.14;81.77;98063.59;105664;1254;96787;-73
2023/12/12 06:18:44;;;;;;;17.60;7.20;;;;;;;3.20;81.73;98068.16;105490;1256;110110;-74
2023/12/12 06:21:11;;;;;;;16.60;6.90;;;;;;;3.23;81.86;98070.23;105601;1257;97095;-75
2023/12/12 06:23:37;;;;;;;19.40;7.60;;;;;;;3.27;81.80;98074.21;105847;1254;97517;-73
2023/12/12 06:26:05;;;;;;;19.80;8.20;;;;;;;3.31;81.87;98075.94;105457;1251;96511;-74
2023/12/12 06:28:31;;;;;;;20.70;8.50;;;;;;;3.32;81.85;98078.17;105658;1258;96838;-75
2023/12/12 06:30:58;;;;;;;21.20;8.80;;;;;;;3.31;81.66;98081.38;105675;1257;96606;-74
2023/12/12 06:33:28;;;;;;;21.80;9.00;;;;;;;3.30;81.85;98084.19;105544;1255;96645;-74
2023/12/12 06:35:58;;;;;;;21.70;9.70;;;;;;;3.27;81.74;98086.66;105551;1257;96581;-72
2023/12/12 06:38:25;;;;;;;22.70;9.60;;;;;;;3.27;81.87;98091.20;105454;1257;96711;-76
2023/12/12 06:40:52;;;;;;;19.10;8.40;;;;;;;3.28;81.63;98095.88;105399;1254;97425;-74
2023/12/12 06:43:18;;;;;;;21.10;9.40;;;;;;;3.27;81.79;98102.42;105390;1254;96571;-73
2023/12/12 06:45:45;;;;;;;23.90;12.20;;;;;;;3.26;81.80;98105.13;105782;1254;97426;-74
2023/12/12 06:48:12;;;;;;;23.80;11.20;;;;;;;3.26;81.95;98104.04;105661;1265;96618;-73
2023/12/12 06:50:42;;;;;;;23.40;11.10;;;;;;;3.27;81.82;98102.09;105395;1254;108871;-75
2023/12/12 06:53:08;;;;;;;22.60;11.50;;;;;;;3.27;81.72;98105.95;105184;1265;97111;-74
2023/12/12 06:55:35;;;;;;;26.40;12.20;;;;;;;3.26;82.03;98106.15;105409;1257;97936;-74
2023/12/12 06:58:03;;;;;;;30.60;15.90;;;;;;;3.25;81.83;98114.45;105456;1251;96651;-75
2023/12/12 07:00:35;;;;;;;42.60;22.90;;;;;;;3.24;81.98;98113.11;105621;1254;97528;-74
2023/12/12 07:03:01;;;;;;;38.50;21.00;;;;;;;3.23;81.64;98120.38;105506;1261;109569;-77
2023/12/12 07:05:28;;;;;;;42.30;24.70;;;;;;;3.25;81.85;98124.46;105413;1257;96745;-73
2023/12/12 07:07:55;;;;;;;42.70;23.80;;;;;;;3.24;81.86;98124.68;105221;1257;97566;-73
2023/12/12 07:10:21;;;;;;;33.20;18.60;;;;;;;3.19;81.79;98128.62;105680;1257;96591;-75
2023/12/12 07:12:47;;;;;;;40.00;23.30;;;;;;;3.19;81.87;98132.54;105787;1254;96597;-74
2023/12/12 07:15:33;;;;;;;30.30;17.90;;;;;;;3.20;81.80;98135.59;105517;1257;96597;-75
2023/12/12 07:17:59;;;;;;;28.80;15.80;;;;;;;3.21;81.81;98129.23;105475;1264;107578;-74
2023/12/12 07:20:26;;;;;;;31.40;16.30;;;;;;;3.22;82.05;98135.14;105249;1264;96594;-74
2023/12/12 07:22:52;;;;;;;26.60;14.40;;;;;;;3.23;81.89;98139.11;105616;1251;96699;-73
2023/12/12 07:25:20;;;;;;;26.80;13.10;;;;;;;3.25;81.98;98139.54;105561;1254;97096;-73
2023/12/12 07:27:47;;;;;;;27.30;13.70;;;;;;;3.27;82.03;98145.69;105533;1257;107634;-73
2023/12/12 07:30:13;;;;;;;30.00;14.30;;;;;;;3.27;81.98;98143.58;105781;1254;97524;-75
2023/12/12 07:32:40;;;;;;;29.80;15.90;;;;;;;3.28;81.88;98150.55;105388;1265;96536;-73
2023/12/12 07:35:07;;;;;;;37.40;17.90;;;;;;;3.29;82.35;98152.98;105632;1251;96647;-73
2023/12/12 07:37:34;;;;;;;36.10;17.90;;;;;;;3.28;82.25;98156.16;105658;1264;96587;-75
2023/12/12 07:40:03;;;;;;;37.00;18.30;;;;;;;3.28;82.17;98156.16;105552;1257;96654;-74
2023/12/12 07:42:30;;;;;;;28.10;12.80;;;;;;;3.30;82.04;98160.77;105669;1256;97999;-75
2023/12/12 07:44:58;;;;;;;25.40;11.40;;;;;;;3.32;82.00;98158.59;105627;1254;110259;-74
2023/12/12 07:47:27;;;;;;;27.10;11.10;;;;;;;3.36;82.03;98162.73;105559;1257;96590;-74
2023/12/12 07:50:08;;;;;;;22.40;8.70;;;;;;;3.41;82.32;98166.99;105523;1270;107245;-74
2023/12/12 07:52:34;;;;;;;26.70;12.00;;;;;;;3.49;82.30;98172.18;105583;1254;96596;-73
2023/12/12 07:55:01;;;;;;;24.10;11.10;;;;;;;3.55;82.30;98172.33;105241;1257;97076;-74
2023/12/12 07:57:28;;;;;;;19.90;8.90;;;;;;;3.60;82.31;98174.36;105554;1256;96529;-74
2023/12/12 07:59:54;;;;;;;26.10;11.00;;;;;;;3.62;82.03;98180.68;105622;1254;97540;-74
2023/12/12 08:11:18;;;;;;;22.30;9.70;;;;;;;3.61;81.78;98200.08;105541;1251;110145;-73
2023/12/12 08:13:44;;;;;;;24.40;12.20;;;;;;;3.62;81.98;98204.92;105259;1257;96605;-74
2023/12/12 08:16:11;;;;;;;22.80;10.90;;;;;;;3.63;82.26;98206.62;105282;1265;97940;-74
2023/12/12 08:18:40;;;;;;;23.10;10.00;;;;;;;3.64;82.02;98201.61;105235;1254;97951;-74
2023/12/12 08:21:10;;;;;;;30.50;14.30;;;;;;;3.65;82.29;98204.73;105249;1265;97429;-73
2023/12/12 08:23:37;;;;;;;26.10;12.10;;;;;;;3.66;81.96;98211.66;105559;1251;110451;-73
2023/12/12 08:26:05;;;;;;;23.50;10.40;;;;;;;3.68;82.01;98213.84;105511;1253;96610;-76
2023/12/12 08:28:31;;;;;;;20.70;9.80;;;;;;;3.70;82.05;98221.11;105585;1255;96603;-74
2023/12/12 08:31:00;;;;;;;22.80;10.10;;;;;;;3.69;82.15;98217.77;105586;1250;97178;-74
2023/12/12 08:33:27;;;;;;;27.30;12.60;;;;;;;3.70;82.25;98224.39;105349;1255;96596;-74
2023/12/12 08:35:53;;;;;;;27.50;13.70;;;;;;;3.72;82.00;98220.47;105523;1251;96604;-74
2023/12/12 08:38:20;;;;;;;27.80;14.70;;;;;;;3.72;82.04;98225.86;105776;1251;96663;-74
2023/12/12 08:40:46;;;;;;;23.90;11.80;;;;;;;3.71;82.26;98228.23;105846;1254;97579;-71
2023/12/12 08:43:13;;;;;;;23.80;10.60;;;;;;;3.71;82.12;98222.05;105457;1257;96638;-73
2023/12/12 08:45:44;;;;;;;26.10;11.50;;;;;;;3.71;82.08;98229.77;105335;1251;109655;-73
2023/12/12 08:48:10;;;;;;;26.10;13.00;;;;;;;3.73;82.19;98230.02;105425;1257;97435;-73
2023/12/12 08:50:37;;;;;;;29.20;12.10;;;;;;;3.75;82.18;98233.61;105540;1254;96603;-74
2023/12/12 08:53:03;;;;;;;23.70;10.90;;;;;;;3.78;82.11;98238.72;105716;1260;96535;-75
2023/12/12 08:55:30;;;;;;;22.50;10.30;;;;;;;3.81;82.21;98240.65;105598;1258;96632;-73
2023/12/12 08:57:56;;;;;;;19.90;9.60;;;;;;;3.83;82.42;98241.37;105502;1264;96609;-77
2023/12/12 09:00:23;;;;;;;22.20;10.60;;;;;;;3.86;82.25;98241.20;105563;1253;106179;-72
2023/12/12 09:02:50;;;;;;;24.70;10.80;;;;;;;3.87;82.43;98240.08;105640;1255;97513;-74
2023/12/12 09:05:17;;;;;;;22.80;10.50;;;;;;;3.91;82.38;98244.27;105712;1251;96699;-74
2023/12/12 09:07:44;;;;;;;20.20;8.70;;;;;;;3.94;82.55;98241.63;105733;1255;96584;-75
2023/12/12 09:10:10;;;;;;;22.50;10.00;;;;;;;3.97;82.17;98242.30;105761;1251;96702;-74
2023/12/12 09:12:37;;;;;;;23.30;9.60;;;;;;;4.00;82.33;98243.91;105766;1256;98032;-76
2023/12/12 09:15:05;;;;;;;21.50;8.70;;;;;;;4.04;82.50;98244.77;105526;1254;97837;-75
2023/12/12 09:17:32;;;;;;;20.20;7.90;;;;;;;4.07;82.44;98246.84;105497;1266;111700;-74
2023/12/12 09:20:00;;;;;;;17.70;7.80;;;;;;;4.11;82.30;98245.73;105515;1254;96635;-75
2023/12/12 09:22:32;;;;;;;20.70;8.60;;;;;;;4.15;82.35;98248.26;105709;1255;107998;-74
2023/12/12 09:24:58;;;;;;;19.40;7.30;;;;;;;4.20;82.59;98249.55;105368;1251;96681;-74
2023/12/12 09:27:26;;;;;;;19.20;7.70;;;;;;;4.25;82.56;98251.23;105504;1251;96670;-73
2023/12/12 09:29:52;;;;;;;20.70;8.90;;;;;;;4.28;82.54;98253.83;105625;1251;96595;-73
2023/12/12 09:32:23;;;;;;;19.30;8.00;;;;;;;4.33;82.28;98260.55;105741;1252;96635;-74
2023/12/12 09:34:52;;;;;;;20.20;8.00;;;;;;;4.37;82.37;98258.57;105651;1264;107661;-73
2023/12/12 09:37:22;;;;;;;18.00;7.30;;;;;;;4.41;82.46;98260.97;105689;1264;96597;-74
2023/12/12 09:39:49;;;;;;;19.80;7.00;;;;;;;4.44;82.39;98258.70;105579;1254;96635;-76
2023/12/12 09:42:17;;;;;;;19.70;8.00;;;;;;;4.48;82.45;98260.91;105672;1251;96602;-73
2023/12/12 09:44:55;;;;;;;20.40;8.70;;;;;;;4.50;82.15;98259.52;105669;1256;96629;-73
2023/12/12 09:47:21;;;;;;;19.10;8.40;;;;;;;4.54;82.51;98262.27;105530;1257;107705;-72
2023/12/12 09:49:50;;;;;;;19.90;8.90;;;;;;;4.58;82.11;98262.58;105569;1255;96651;-73
2023/12/12 09:52:18;;;;;;;20.00;8.10;;;;;;;4.60;82.54;98262.06;105436;1254;96686;-75
2023/12/12 09:54:47;;;;;;;19.20;8.30;;;;;;;4.64;82.30;98264.16;105286;1252;109927;-74
2023/12/12 09:57:16;;;;;;;20.10;8.00;;;;;;;4.67;82.38;98268.89;105712;1251;96592;-74
2023/12/12 09:59:43;;;;;;;21.80;8.10;;;;;;;4.68;82.48;98272.49;105648;1254;107497;-74
2023/12/12 10:02:13;;;;;;;21.20;10.00;;;;;;;4.70;82.40;98280.08;105205;1256;97544;-74
2023/12/12 10:04:51;;;;;;;19.70;8.20;;;;;;;4.72;82.37;98275.23;105459;1251;96568;-73
2023/12/12 10:07:24;;;;;;;21.90;9.00;;;;;;;4.75;82.42;98273.48;105584;1253;110266;-73
2023/12/12 10:09:50;;;;;;;20.50;8.30;;;;;;;4.77;82.29;98269.83;105577;1255;96654;-73
2023/12/12 10:12:17;;;;;;;19.40;8.80;;;;;;;4.80;82.64;98268.11;105468;1268;96767;-75
2023/12/12 10:14:44;;;;;;;20.10;8.60;;;;;;;4.82;82.50;98266.41;105474;1255;96692;-72
2023/12/12 10:17:11;;;;;;;17.70;7.90;;;;;;;4.84;82.29;98269.45;105676;1251;97054;-73
2023/12/12 10:19:38;;;;;;;20.10;9.10;;;;;;;4.86;82.56;98267.38;105695;1250;96599;-73
2023/12/12 10:22:07;;;;;;;19.70;8.40;;;;;;;4.87;82.49;98270.98;105554;1260;97040;-73
2023/12/12 10:24:35;;;;;;;18.50;6.70;;;;;;;4.88;82.43;98269.67;105699;1264;96603;-77
2023/12/12 10:27:04;;;;;;;19.50;8.40;;;;;;;4.89;82.28;98276.15;105414;1256;96686;-74
2023/12/12 10:29:32;;;;;;;20.00;7.60;;;;;;;4.90;82.33;98273.96;105559;1253;97438;-75
2023/12/12 10:32:02;;;;;;;25.80;9.10;;;;;;;4.90;82.50;98273.95;105526;1251;96699;-74
2023/12/12 10:34:31;;;;;;;23.60;10.30;;;;;;;4.90;82.41;98273.23;105477;1250;96657;-74
2023/12/12 10:37:01;;;;;;;22.80;10.30;;;;;;;4.91;82.42;98274.55;105660;1254;96621;-74
2023/12/12 10:39:33;;;;;;;23.20;11.50;;;;;;;4.94;82.45;98273.59;105646;1253;96612;-73
2023/12/12 10:41:59;;;;;;;25.40;11.20;;;;;;;4.96;82.48;98274.32;105551;1254;97907;-74
2023/12/12 10:44:32;;;;;;;23.50;10.90;;;;;;;4.96;82.33;98270.10;105419;1250;96637;-73
2023/12/12 10:47:00;;;;;;;24.70;12.20;;;;;;;4.98;82.46;98272.43;105483;1267;97089;-76
2023/12/12 10:49:32;;;;;;;23.00;11.30;;;;;;;4.99;82.38;98275.36;105564;1257;107285;-73
2023/12/12 10:52:03;;;;;;;22.10;9.30;;;;;;;5.00;82.25;98280.38;105627;1256;96596;-74
2023/12/12 10:54:35;;;;;;;20.70;9.60;;;;;;;5.00;82.34;98283.38;105701;1251;96596;-76
2023/12/12 10:57:03;;;;;;;27.20;12.60;;;;;;;5.01;82.33;98288.06;105541;1257;110553;-75
2023/12/12 10:59:31;;;;;;;24.30;10.50;;;;;;;5.01;82.16;98291.75;105612;1257;96603;-75
2023/12/12 11:03:35;;;;;;;21.10;10.00;;;;;;;5.04;82.35;98291.92;102311;1295;637074;-74
2023/12/12 11:06:09;;;;;;;28.20;11.70;;;;;;;5.01;82.36;98293.48;104568;1272;94335;-73
2023/12/12 11:08:37;;;;;;;23.50;11.10;;;;;;;5.03;82.42;98295.30;104615;1266;94329;-74
2023/12/12 11:11:09;;;;;;;25.90;13.20;;;;;;;5.04;82.37;98297.02;104618;1267;106334;-75
2023/12/12 11:13:43;;;;;;;27.00;12.30;;;;;;;5.06;82.45;98294.08;104542;1272;95827;-73
2023/12/12 11:16:11;;;;;;;25.70;12.20;;;;;;;5.07;82.34;98291.23;104765;1273;116851;-73
2023/12/12 11:18:46;;;;;;;22.40;10.80;;;;;;;5.09;82.40;98291.11;104669;1267;94408;-74
2023/12/12 11:21:43;;;;;;;24.10;12.60;;;;;;;5.10;82.28;98294.36;104442;1280;94296;-74
2023/12/12 11:24:12;;;;;;;27.40;14.30;;;;;;;5.12;82.28;98293.71;104527;1264;105680;-73
2023/12/12 11:26:42;;;;;;;32.70;15.50;;;;;;;5.13;82.32;98291.19;104407;1270;95369;-74
2023/12/12 11:29:12;;;;;;;30.70;14.80;;;;;;;5.15;82.42;98291.23;104586;1267;107642;-74
2023/12/12 11:32:01;;;;;;;25.90;12.80;;;;;;;5.15;82.24;98292.29;104573;1268;96156;-74
2023/12/12 11:34:41;;;;;;;23.40;10.00;;;;;;;5.16;82.37;98294.34;104604;1269;95365;-74